sensor_id;sensor_type;location;lat;lon;timestamp;pressure;altitude;pressure_sealevel;temperature;humidity
21574;BME280;10948;48.706;9.258;2023-07-08T00:01:19;97822.78;;;19.06;73.00
21574;BME280;10948;48.706;9.258;2023-07-08T00:03:45;97814.75;;;18.98;74.11
21574;BME280;10948;48.706;9.258;2023-07-08T00:06:11;97825.88;;;18.92;73.54
21574;BME280;10948;48.706;9.258;2023-07-08T00:08:38;97817.72;;;18.76;74.98
21574;BME280;10948;48.706;9.258;2023-07-08T00:11:07;97821.75;;;18.80;76.05
21574;BME280;10948;48.706;9.258;2023-07-08T00:13:33;97818.13;;;18.91;75.37
21574;BME280;10948;48.706;9.258;2023-07-08T00:15:58;97813.44;;;18.56;77.23
21574;BME280;10948;48.706;9.258;2023-07-08T00:18:23;97810.13;;;18.54;77.42
21574;BME280;10948;48.706;9.258;2023-07-08T00:20:49;97815.66;;;18.32;76.97
21574;BME280;10948;48.706;9.258;2023-07-08T00:23:14;97808.13;;;18.28;78.75
21574;BME280;10948;48.706;9.258;2023-07-08T00:25:40;97801.19;;;18.17;78.89
21574;BME280;10948;48.706;9.258;2023-07-08T00:28:09;97800.78;;;18.12;79.90
21574;BME280;10948;48.706;9.258;2023-07-08T00:30:35;97798.47;;;18.47;77.34
21574;BME280;10948;48.706;9.258;2023-07-08T00:33:00;97796.88;;;18.73;76.83
21574;BME280;10948;48.706;9.258;2023-07-08T00:37:57;97795.41;;;18.42;78.26
21574;BME280;10948;48.706;9.258;2023-07-08T00:40:26;97798.72;;;18.63;76.39
21574;BME280;10948;48.706;9.258;2023-07-08T00:42:52;97808.72;;;18.50;77.22
21574;BME280;10948;48.706;9.258;2023-07-08T00:45:29;97800.09;;;18.20;77.16
21574;BME280;10948;48.706;9.258;2023-07-08T00:47:58;97808.25;;;18.26;79.15
21574;BME280;10948;48.706;9.258;2023-07-08T00:50:25;97812.59;;;18.37;79.01
21574;BME280;10948;48.706;9.258;2023-07-08T00:52:50;97815.63;;;18.04;81.01
21574;BME280;10948;48.706;9.258;2023-07-08T00:55:35;97801.75;;;18.21;79.89
21574;BME280;10948;48.706;9.258;2023-07-08T00:58:01;97808.19;;;17.69;81.89
21574;BME280;10948;48.706;9.258;2023-07-08T01:00:26;97816.88;;;18.19;81.13
21574;BME280;10948;48.706;9.258;2023-07-08T01:02:53;97806.19;;;18.01;79.28
21574;BME280;10948;48.706;9.258;2023-07-08T01:05:22;97802.28;;;18.05;79.83
21574;BME280;10948;48.706;9.258;2023-07-08T01:07:49;97806.44;;;18.08;81.59
21574;BME280;10948;48.706;9.258;2023-07-08T01:10:18;97807.16;;;18.00;80.13
21574;BME280;10948;48.706;9.258;2023-07-08T01:12:45;97810.72;;;17.99;81.45
21574;BME280;10948;48.706;9.258;2023-07-08T01:15:12;97806.09;;;17.63;82.13
21574;BME280;10948;48.706;9.258;2023-07-08T01:17:39;97807.25;;;17.80;81.44
21574;BME280;10948;48.706;9.258;2023-07-08T01:20:05;97803.13;;;17.96;81.02
21574;BME280;10948;48.706;9.258;2023-07-08T01:22:31;97799.84;;;17.64;81.20
21574;BME280;10948;48.706;9.258;2023-07-08T01:24:57;97804.88;;;17.77;81.15
21574;BME280;10948;48.706;9.258;2023-07-08T01:27:28;97800.97;;;17.71;82.72
21574;BME280;10948;48.706;9.258;2023-07-08T01:29:53;97800.28;;;17.69;83.96
21574;BME280;10948;48.706;9.258;2023-07-08T01:32:19;97799.63;;;17.86;80.75
21574;BME280;10948;48.706;9.258;2023-07-08T01:34:45;97801.13;;;17.79;80.89
21574;BME280;10948;48.706;9.258;2023-07-08T01:37:24;97802.38;;;17.75;81.05
21574;BME280;10948;48.706;9.258;2023-07-08T01:39:50;97806.44;;;17.19;83.20
21574;BME280;10948;48.706;9.258;2023-07-08T01:42:15;97803.41;;;17.14;85.89
21574;BME280;10948;48.706;9.258;2023-07-08T01:44:40;97806.38;;;17.10;88.04
21574;BME280;10948;48.706;9.258;2023-07-08T01:47:11;97797.47;;;17.52;84.06
21574;BME280;10948;48.706;9.258;2023-07-08T01:49:38;97792.94;;;17.03;84.88
21574;BME280;10948;48.706;9.258;2023-07-08T01:52:04;97791.34;;;17.42;84.24
21574;BME280;10948;48.706;9.258;2023-07-08T01:54:30;97792.53;;;17.68;81.48
21574;BME280;10948;48.706;9.258;2023-07-08T01:56:55;97796.44;;;17.13;84.33
21574;BME280;10948;48.706;9.258;2023-07-08T01:59:21;97801.69;;;17.13;84.99
21574;BME280;10948;48.706;9.258;2023-07-08T02:01:46;97799.22;;;17.12;84.42
21574;BME280;10948;48.706;9.258;2023-07-08T02:04:12;97802.31;;;17.26;84.27
21574;BME280;10948;48.706;9.258;2023-07-08T02:06:38;97799.28;;;17.21;84.98
21574;BME280;10948;48.706;9.258;2023-07-08T02:09:03;97805.19;;;16.93;85.82
21574;BME280;10948;48.706;9.258;2023-07-08T02:11:30;97799.50;;;17.18;83.51
21574;BME280;10948;48.706;9.258;2023-07-08T02:13:55;97801.34;;;16.98;85.30
21574;BME280;10948;48.706;9.258;2023-07-08T02:16:20;97800.88;;;16.63;86.28
21574;BME280;10948;48.706;9.258;2023-07-08T02:18:46;97802.13;;;16.48;88.53
21574;BME280;10948;48.706;9.258;2023-07-08T02:21:11;97802.25;;;16.67;87.73
21574;BME280;10948;48.706;9.258;2023-07-08T02:23:37;97814.72;;;16.85;86.20
21574;BME280;10948;48.706;9.258;2023-07-08T02:26:02;97815.72;;;16.93;84.83
21574;BME280;10948;48.706;9.258;2023-07-08T02:28:28;97813.56;;;16.58;85.36
21574;BME280;10948;48.706;9.258;2023-07-08T02:30:53;97818.91;;;16.56;86.85
21574;BME280;10948;48.706;9.258;2023-07-08T02:33:18;97809.97;;;16.79;85.67
21574;BME280;10948;48.706;9.258;2023-07-08T02:35:43;97808.59;;;16.64;86.80
21574;BME280;10948;48.706;9.258;2023-07-08T02:38:10;97806.56;;;16.88;84.86
21574;BME280;10948;48.706;9.258;2023-07-08T02:40:35;97803.13;;;16.97;84.67
21574;BME280;10948;48.706;9.258;2023-07-08T02:43:00;97816.81;;;16.71;84.91
21574;BME280;10948;48.706;9.258;2023-07-08T02:45:25;97815.03;;;16.71;87.87
21574;BME280;10948;48.706;9.258;2023-07-08T02:47:50;97815.72;;;16.93;86.35
21574;BME280;10948;48.706;9.258;2023-07-08T02:50:16;97815.81;;;16.83;85.13
21574;BME280;10948;48.706;9.258;2023-07-08T02:52:42;97834.25;;;16.92;84.08
21574;BME280;10948;48.706;9.258;2023-07-08T02:55:07;97843.16;;;16.60;86.77
21574;BME280;10948;48.706;9.258;2023-07-08T02:57:32;97853.75;;;16.69;87.24
21574;BME280;10948;48.706;9.258;2023-07-08T02:59:58;97860.31;;;16.43;86.78
21574;BME280;10948;48.706;9.258;2023-07-08T03:02:23;97866.94;;;16.58;88.65
21574;BME280;10948;48.706;9.258;2023-07-08T03:04:48;97859.56;;;16.73;89.59
21574;BME280;10948;48.706;9.258;2023-07-08T03:07:15;97854.72;;;16.89;88.83
21574;BME280;10948;48.706;9.258;2023-07-08T03:09:40;97853.16;;;17.06;86.20
21574;BME280;10948;48.706;9.258;2023-07-08T03:12:06;97847.13;;;17.15;84.96
21574;BME280;10948;48.706;9.258;2023-07-08T03:14:31;97870.91;;;16.93;84.71
21574;BME280;10948;48.706;9.258;2023-07-08T03:16:57;97854.25;;;17.04;85.15
21574;BME280;10948;48.706;9.258;2023-07-08T03:19:22;97851.63;;;16.84;85.69
21574;BME280;10948;48.706;9.258;2023-07-08T03:21:47;97848.97;;;17.24;83.51
21574;BME280;10948;48.706;9.258;2023-07-08T03:24:12;97848.41;;;17.00;83.69
21574;BME280;10948;48.706;9.258;2023-07-08T03:26:38;97850.72;;;17.14;84.48
21574;BME280;10948;48.706;9.258;2023-07-08T03:29:03;97843.78;;;17.13;85.08
21574;BME280;10948;48.706;9.258;2023-07-08T03:31:28;97839.81;;;16.98;85.09
21574;BME280;10948;48.706;9.258;2023-07-08T03:33:53;97845.72;;;17.11;84.65
21574;BME280;10948;48.706;9.258;2023-07-08T03:36:19;97844.06;;;17.10;84.48
21574;BME280;10948;48.706;9.258;2023-07-08T03:38:54;97838.72;;;16.81;86.16
21574;BME280;10948;48.706;9.258;2023-07-08T03:41:20;97844.09;;;17.20;84.32
21574;BME280;10948;48.706;9.258;2023-07-08T03:43:46;97855.03;;;16.95;84.85
21574;BME280;10948;48.706;9.258;2023-07-08T03:46:12;97843.66;;;17.15;85.44
21574;BME280;10948;48.706;9.258;2023-07-08T03:48:37;97845.25;;;17.27;85.39
21574;BME280;10948;48.706;9.258;2023-07-08T03:51:03;97840.28;;;17.33;84.89
21574;BME280;10948;48.706;9.258;2023-07-08T03:53:28;97841.97;;;17.34;84.26
21574;BME280;10948;48.706;9.258;2023-07-08T03:55:53;97848.13;;;17.24;85.97
21574;BME280;10948;48.706;9.258;2023-07-08T03:58:19;97848.78;;;17.16;85.25
21574;BME280;10948;48.706;9.258;2023-07-08T04:00:44;97854.63;;;17.20;84.55
21574;BME280;10948;48.706;9.258;2023-07-08T04:03:10;97849.84;;;17.55;84.70
21574;BME280;10948;48.706;9.258;2023-07-08T04:05:36;97844.16;;;17.29;84.79
21574;BME280;10948;48.706;9.258;2023-07-08T04:08:01;97847.25;;;17.64;85.86
21574;BME280;10948;48.706;9.258;2023-07-08T04:10:27;97837.16;;;17.69;85.35
21574;BME280;10948;48.706;9.258;2023-07-08T04:12:52;97834.69;;;17.77;85.03
21574;BME280;10948;48.706;9.258;2023-07-08T04:15:17;97828.34;;;17.89;83.63
21574;BME280;10948;48.706;9.258;2023-07-08T04:17:43;97828.06;;;18.02;81.08
21574;BME280;10948;48.706;9.258;2023-07-08T04:20:10;97825.88;;;18.16;81.24
21574;BME280;10948;48.706;9.258;2023-07-08T04:22:36;97835.56;;;18.16;79.58
21574;BME280;10948;48.706;9.258;2023-07-08T04:25:01;97847.03;;;17.96;80.08
21574;BME280;10948;48.706;9.258;2023-07-08T04:27:28;97841.69;;;18.26;80.96
21574;BME280;10948;48.706;9.258;2023-07-08T04:29:54;97833.13;;;18.62;79.77
21574;BME280;10948;48.706;9.258;2023-07-08T04:32:19;97831.03;;;18.84;79.00
21574;BME280;10948;48.706;9.258;2023-07-08T04:34:44;97838.94;;;18.65;79.83
21574;BME280;10948;48.706;9.258;2023-07-08T04:37:10;97848.13;;;18.61;80.92
21574;BME280;10948;48.706;9.258;2023-07-08T04:39:36;97863.41;;;18.48;79.98
21574;BME280;10948;48.706;9.258;2023-07-08T04:42:01;97854.97;;;19.19;78.08
21574;BME280;10948;48.706;9.258;2023-07-08T04:44:26;97853.63;;;19.88;75.64
21574;BME280;10948;48.706;9.258;2023-07-08T04:46:55;97849.63;;;20.11;72.98
21574;BME280;10948;48.706;9.258;2023-07-08T04:49:21;97856.69;;;20.55;68.36
21574;BME280;10948;48.706;9.258;2023-07-08T04:51:47;97846.03;;;20.82;67.46
21574;BME280;10948;48.706;9.258;2023-07-08T04:54:13;97852.59;;;20.78;67.95
21574;BME280;10948;48.706;9.258;2023-07-08T04:59:03;97854.47;;;21.03;70.61
21574;BME280;10948;48.706;9.258;2023-07-08T05:01:28;97850.44;;;21.42;68.56
21574;BME280;10948;48.706;9.258;2023-07-08T05:03:54;97843.13;;;21.36;67.90
21574;BME280;10948;48.706;9.258;2023-07-08T05:06:19;97846.06;;;21.59;67.39
21574;BME280;10948;48.706;9.258;2023-07-08T05:08:45;97844.59;;;21.64;66.81
21574;BME280;10948;48.706;9.258;2023-07-08T05:11:10;97849.09;;;22.05;65.69
21574;BME280;10948;48.706;9.258;2023-07-08T05:13:35;97864.09;;;22.30;65.08
21574;BME280;10948;48.706;9.258;2023-07-08T05:16:00;97859.69;;;22.55;63.40
21574;BME280;10948;48.706;9.258;2023-07-08T05:18:26;97861.88;;;23.31;61.38
21574;BME280;10948;48.706;9.258;2023-07-08T05:20:51;97848.88;;;23.60;58.41
21574;BME280;10948;48.706;9.258;2023-07-08T05:23:17;97860.03;;;23.56;54.83
21574;BME280;10948;48.706;9.258;2023-07-08T05:25:42;97866.56;;;23.21;56.29
21574;BME280;10948;48.706;9.258;2023-07-08T05:28:07;97859.31;;;23.62;55.92
21574;BME280;10948;48.706;9.258;2023-07-08T05:30:34;97861.31;;;23.60;55.76
21574;BME280;10948;48.706;9.258;2023-07-08T05:32:59;97873.88;;;24.28;54.27
21574;BME280;10948;48.706;9.258;2023-07-08T05:35:25;97881.44;;;24.47;53.05
21574;BME280;10948;48.706;9.258;2023-07-08T05:37:50;97877.34;;;24.36;52.76
21574;BME280;10948;48.706;9.258;2023-07-08T05:40:15;97876.22;;;24.84;52.88
21574;BME280;10948;48.706;9.258;2023-07-08T05:42:40;97868.66;;;24.73;52.95
21574;BME280;10948;48.706;9.258;2023-07-08T05:45:06;97876.22;;;24.84;54.17
21574;BME280;10948;48.706;9.258;2023-07-08T05:47:35;97878.28;;;24.74;55.86
21574;BME280;10948;48.706;9.258;2023-07-08T05:50:00;97876.16;;;24.39;55.71
21574;BME280;10948;48.706;9.258;2023-07-08T05:52:26;97871.78;;;24.46;54.99
21574;BME280;10948;48.706;9.258;2023-07-08T05:54:51;97882.22;;;24.86;54.77
21574;BME280;10948;48.706;9.258;2023-07-08T05:57:16;97890.53;;;24.52;56.31
21574;BME280;10948;48.706;9.258;2023-07-08T05:59:41;97884.53;;;25.63;53.09
21574;BME280;10948;48.706;9.258;2023-07-08T06:02:08;97886.28;;;25.19;54.59
21574;BME280;10948;48.706;9.258;2023-07-08T06:04:34;97890.97;;;24.72;55.44
21574;BME280;10948;48.706;9.258;2023-07-08T06:07:00;97888.72;;;24.83;54.08
21574;BME280;10948;48.706;9.258;2023-07-08T06:09:25;97895.47;;;24.94;53.34
21574;BME280;10948;48.706;9.258;2023-07-08T06:11:50;97888.28;;;24.94;54.52
21574;BME280;10948;48.706;9.258;2023-07-08T06:14:15;97892.09;;;24.77;53.96
21574;BME280;10948;48.706;9.258;2023-07-08T06:16:40;97888.03;;;25.04;54.62
21574;BME280;10948;48.706;9.258;2023-07-08T06:19:06;97887.59;;;25.23;54.89
21574;BME280;10948;48.706;9.258;2023-07-08T06:21:31;97886.03;;;25.06;54.31
21574;BME280;10948;48.706;9.258;2023-07-08T06:23:56;97879.53;;;25.08;53.57
21574;BME280;10948;48.706;9.258;2023-07-08T06:26:21;97894.44;;;24.95;55.29
21574;BME280;10948;48.706;9.258;2023-07-08T06:28:47;97890.19;;;24.86;53.94
21574;BME280;10948;48.706;9.258;2023-07-08T06:31:12;97887.22;;;25.03;53.40
21574;BME280;10948;48.706;9.258;2023-07-08T06:33:37;97898.69;;;25.04;54.46
21574;BME280;10948;48.706;9.258;2023-07-08T06:36:02;97903.69;;;25.07;53.63
21574;BME280;10948;48.706;9.258;2023-07-08T06:38:28;97919.44;;;25.39;53.77
21574;BME280;10948;48.706;9.258;2023-07-08T06:40:53;97922.81;;;25.10;53.96
21574;BME280;10948;48.706;9.258;2023-07-08T06:43:18;97921.09;;;24.95;54.15
21574;BME280;10948;48.706;9.258;2023-07-08T06:45:43;97926.88;;;24.98;53.10
21574;BME280;10948;48.706;9.258;2023-07-08T06:48:08;97950.06;;;24.90;52.95
21574;BME280;10948;48.706;9.258;2023-07-08T06:50:34;97950.78;;;24.84;53.27
21574;BME280;10948;48.706;9.258;2023-07-08T06:52:59;97950.06;;;24.90;54.13
21574;BME280;10948;48.706;9.258;2023-07-08T06:55:24;97948.78;;;24.86;54.03
21574;BME280;10948;48.706;9.258;2023-07-08T06:57:50;97948.41;;;24.89;54.95
21574;BME280;10948;48.706;9.258;2023-07-08T07:00:15;97943.50;;;25.00;53.01
21574;BME280;10948;48.706;9.258;2023-07-08T07:02:40;97947.75;;;24.64;52.91
21574;BME280;10948;48.706;9.258;2023-07-08T07:05:06;97947.22;;;24.69;53.44
21574;BME280;10948;48.706;9.258;2023-07-08T07:07:31;97952.47;;;24.77;53.55
21574;BME280;10948;48.706;9.258;2023-07-08T07:09:56;97947.47;;;24.82;53.78
21574;BME280;10948;48.706;9.258;2023-07-08T07:12:23;97956.38;;;25.19;53.74
21574;BME280;10948;48.706;9.258;2023-07-08T07:14:48;97938.72;;;25.41;53.10
21574;BME280;10948;48.706;9.258;2023-07-08T07:17:15;97943.22;;;25.18;52.83
21574;BME280;10948;48.706;9.258;2023-07-08T07:19:40;97943.66;;;25.07;54.78
21574;BME280;10948;48.706;9.258;2023-07-08T07:22:05;97943.34;;;25.02;53.31
21574;BME280;10948;48.706;9.258;2023-07-08T07:24:30;97952.91;;;25.11;52.91
21574;BME280;10948;48.706;9.258;2023-07-08T07:26:56;97951.28;;;25.10;52.93
21574;BME280;10948;48.706;9.258;2023-07-08T07:29:22;97961.34;;;25.00;53.27
21574;BME280;10948;48.706;9.258;2023-07-08T07:31:47;97956.38;;;25.19;53.83
21574;BME280;10948;48.706;9.258;2023-07-08T07:34:13;97959.72;;;25.13;52.15
21574;BME280;10948;48.706;9.258;2023-07-08T07:36:39;97963.50;;;25.27;51.98
21574;BME280;10948;48.706;9.258;2023-07-08T07:39:04;97956.63;;;25.32;51.98
21574;BME280;10948;48.706;9.258;2023-07-08T07:41:30;97959.34;;;25.47;51.74
21574;BME280;10948;48.706;9.258;2023-07-08T07:43:55;97959.91;;;25.57;51.56
21574;BME280;10948;48.706;9.258;2023-07-08T07:46:21;97958.25;;;25.56;51.17
21574;BME280;10948;48.706;9.258;2023-07-08T07:48:46;97954.66;;;25.86;51.02
21574;BME280;10948;48.706;9.258;2023-07-08T07:51:11;97961.84;;;25.63;51.74
21574;BME280;10948;48.706;9.258;2023-07-08T07:53:37;97960.16;;;25.47;51.17
21574;BME280;10948;48.706;9.258;2023-07-08T07:56:03;97954.72;;;25.41;51.73
21574;BME280;10948;48.706;9.258;2023-07-08T07:58:29;97964.53;;;25.40;52.17
21574;BME280;10948;48.706;9.258;2023-07-08T08:00:54;97959.69;;;25.44;51.45
21574;BME280;10948;48.706;9.258;2023-07-08T08:03:20;97958.97;;;25.50;51.73
21574;BME280;10948;48.706;9.258;2023-07-08T08:05:45;97964.25;;;25.72;51.88
21574;BME280;10948;48.706;9.258;2023-07-08T08:08:10;97961.06;;;25.77;51.25
21574;BME280;10948;48.706;9.258;2023-07-08T08:10:36;97960.13;;;25.70;51.76
21574;BME280;10948;48.706;9.258;2023-07-08T08:13:02;97968.31;;;25.83;52.02
21574;BME280;10948;48.706;9.258;2023-07-08T08:15:27;97963.13;;;26.04;51.44
21574;BME280;10948;48.706;9.258;2023-07-08T08:17:52;97965.25;;;26.52;50.66
21574;BME280;10948;48.706;9.258;2023-07-08T08:20:18;97956.84;;;27.05;49.31
21574;BME280;10948;48.706;9.258;2023-07-08T08:22:44;97965.34;;;27.99;47.48
21574;BME280;10948;48.706;9.258;2023-07-08T08:25:09;97963.63;;;29.06;45.70
21574;BME280;10948;48.706;9.258;2023-07-08T08:27:35;97972.75;;;28.65;46.35
21574;BME280;10948;48.706;9.258;2023-07-08T08:30:00;97976.91;;;30.05;42.73
21574;BME280;10948;48.706;9.258;2023-07-08T08:32:26;97980.56;;;28.66;45.86
21574;BME280;10948;48.706;9.258;2023-07-08T08:34:54;97975.81;;;29.09;44.95
21574;BME280;10948;48.706;9.258;2023-07-08T08:37:19;97969.34;;;33.28;39.08
21574;BME280;10948;48.706;9.258;2023-07-08T08:39:44;97977.91;;;37.29;33.30
21574;BME280;10948;48.706;9.258;2023-07-08T08:42:18;97985.03;;;33.90;36.10
21574;BME280;10948;48.706;9.258;2023-07-08T08:44:50;97981.50;;;33.90;37.38
21574;BME280;10948;48.706;9.258;2023-07-08T08:47:31;97978.88;;;37.97;32.68
21574;BME280;10948;48.706;9.258;2023-07-08T08:50:47;97993.34;;;39.97;30.40
21574;BME280;10948;48.706;9.258;2023-07-08T08:52:44;97987.72;;;41.07;29.62
21574;BME280;10948;48.706;9.258;2023-07-08T08:55:13;97983.31;;;35.93;33.20
21574;BME280;10948;48.706;9.258;2023-07-08T09:00:09;97998.28;;;41.23;28.74
21574;BME280;10948;48.706;9.258;2023-07-08T09:05:14;97994.84;;;41.56;27.41
21574;BME280;10948;48.706;9.258;2023-07-08T09:10:25;97985.69;;;39.99;29.08
21574;BME280;10948;48.706;9.258;2023-07-08T09:12:58;97999.88;;;41.78;28.52
21574;BME280;10948;48.706;9.258;2023-07-08T09:15:28;97997.22;;;37.54;32.29
21574;BME280;10948;48.706;9.258;2023-07-08T09:17:53;97996.09;;;35.48;34.68
21574;BME280;10948;48.706;9.258;2023-07-08T09:20:24;98000.25;;;33.32;36.87
21574;BME280;10948;48.706;9.258;2023-07-08T09:27:55;97998.13;;;34.28;37.35
21574;BME280;10948;48.706;9.258;2023-07-08T09:30:21;97995.72;;;33.44;38.15
21574;BME280;10948;48.706;9.258;2023-07-08T09:32:47;97988.19;;;33.46;37.54
21574;BME280;10948;48.706;9.258;2023-07-08T09:37:45;97983.88;;;34.55;35.63
21574;BME280;10948;48.706;9.258;2023-07-08T09:40:28;97988.50;;;33.68;36.66
21574;BME280;10948;48.706;9.258;2023-07-08T09:42:55;97989.50;;;34.19;36.42
21574;BME280;10948;48.706;9.258;2023-07-08T09:45:24;97988.66;;;33.96;37.51
21574;BME280;10948;48.706;9.258;2023-07-08T09:47:55;97983.63;;;33.99;36.89
21574;BME280;10948;48.706;9.258;2023-07-08T09:50:22;97988.38;;;34.27;37.40
21574;BME280;10948;48.706;9.258;2023-07-08T09:52:48;97986.81;;;35.05;35.58
21574;BME280;10948;48.706;9.258;2023-07-08T09:55:14;97994.34;;;34.17;36.24
21574;BME280;10948;48.706;9.258;2023-07-08T09:57:39;97992.03;;;32.73;39.06
21574;BME280;10948;48.706;9.258;2023-07-08T10:00:11;97989.28;;;31.46;39.93
21574;BME280;10948;48.706;9.258;2023-07-08T10:02:41;97992.63;;;30.91;39.83
21574;BME280;10948;48.706;9.258;2023-07-08T10:05:18;97993.47;;;29.89;39.86
21574;BME280;10948;48.706;9.258;2023-07-08T10:07:44;97989.59;;;31.25;39.53
21574;BME280;10948;48.706;9.258;2023-07-08T10:10:12;98007.31;;;29.80;41.14
21574;BME280;10948;48.706;9.258;2023-07-08T10:12:39;97990.75;;;30.35;42.31
21574;BME280;10948;48.706;9.258;2023-07-08T10:15:18;98002.34;;;29.90;42.34
21574;BME280;10948;48.706;9.258;2023-07-08T10:17:45;97992.00;;;30.26;41.09
21574;BME280;10948;48.706;9.258;2023-07-08T10:20:11;97987.78;;;30.56;41.56
21574;BME280;10948;48.706;9.258;2023-07-08T10:25:26;97996.28;;;30.53;42.20
21574;BME280;10948;48.706;9.258;2023-07-08T10:28:31;97993.69;;;32.38;39.05
21574;BME280;10948;48.706;9.258;2023-07-08T10:30:58;97997.66;;;32.90;37.94
21574;BME280;10948;48.706;9.258;2023-07-08T10:48:56;97986.00;;;34.30;35.50
21574;BME280;10948;48.706;9.258;2023-07-08T10:54:22;97990.84;;;35.58;34.29
21574;BME280;10948;48.706;9.258;2023-07-08T10:56:54;97984.19;;;35.21;33.84
21574;BME280;10948;48.706;9.258;2023-07-08T10:59:26;97980.19;;;34.73;34.84
21574;BME280;10948;48.706;9.258;2023-07-08T11:09:28;97974.75;;;32.63;37.32
21574;BME280;10948;48.706;9.258;2023-07-08T11:12:04;97977.84;;;33.96;36.28
21574;BME280;10948;48.706;9.258;2023-07-08T11:14:42;97978.09;;;34.17;35.89
21574;BME280;10948;48.706;9.258;2023-07-08T11:17:15;97970.34;;;34.21;35.74
21574;BME280;10948;48.706;9.258;2023-07-08T11:19:48;97972.88;;;33.70;35.74
21574;BME280;10948;48.706;9.258;2023-07-08T11:22:16;97974.41;;;35.48;34.02
21574;BME280;10948;48.706;9.258;2023-07-08T11:27:10;97969.50;;;34.20;35.62
21574;BME280;10948;48.706;9.258;2023-07-08T11:29:44;97967.31;;;35.47;34.68
21574;BME280;10948;48.706;9.258;2023-07-08T11:32:12;97966.03;;;35.66;34.44
21574;BME280;10948;48.706;9.258;2023-07-08T11:34:41;97963.94;;;36.01;34.36
21574;BME280;10948;48.706;9.258;2023-07-08T11:37:07;97960.25;;;34.28;35.47
21574;BME280;10948;48.706;9.258;2023-07-08T11:39:41;97954.09;;;35.06;34.58
21574;BME280;10948;48.706;9.258;2023-07-08T11:44:41;97956.97;;;34.37;34.67
21574;BME280;10948;48.706;9.258;2023-07-08T11:47:12;97946.00;;;35.67;34.11
21574;BME280;10948;48.706;9.258;2023-07-08T11:49:40;97948.19;;;35.37;33.96
21574;BME280;10948;48.706;9.258;2023-07-08T11:52:08;97936.84;;;35.68;33.18
21574;BME280;10948;48.706;9.258;2023-07-08T11:54:34;97946.91;;;35.56;33.63
21574;BME280;10948;48.706;9.258;2023-07-08T11:57:04;97938.16;;;35.82;33.81
21574;BME280;10948;48.706;9.258;2023-07-08T11:59:33;97939.13;;;36.47;32.68
21574;BME280;10948;48.706;9.258;2023-07-08T12:02:02;97938.31;;;34.64;34.85
21574;BME280;10948;48.706;9.258;2023-07-08T12:04:30;97925.03;;;34.62;34.50
21574;BME280;10948;48.706;9.258;2023-07-08T12:07:09;97921.91;;;35.21;33.49
21574;BME280;10948;48.706;9.258;2023-07-08T12:09:39;97918.56;;;35.47;32.92
21574;BME280;10948;48.706;9.258;2023-07-08T12:12:14;97914.16;;;35.91;33.53
21574;BME280;10948;48.706;9.258;2023-07-08T12:14:40;97919.28;;;34.98;33.13
21574;BME280;10948;48.706;9.258;2023-07-08T12:17:10;97914.13;;;35.13;33.42
21574;BME280;10948;48.706;9.258;2023-07-08T12:19:35;97912.66;;;35.50;32.55
21574;BME280;10948;48.706;9.258;2023-07-08T12:22:07;97904.75;;;36.74;32.85
21574;BME280;10948;48.706;9.258;2023-07-08T12:24:32;97907.66;;;36.25;32.84
21574;BME280;10948;48.706;9.258;2023-07-08T12:26:58;97905.16;;;36.61;33.52
21574;BME280;10948;48.706;9.258;2023-07-08T12:29:23;97913.97;;;36.73;32.04
21574;BME280;10948;48.706;9.258;2023-07-08T12:31:48;97907.50;;;35.04;33.73
21574;BME280;10948;48.706;9.258;2023-07-08T12:34:14;97907.19;;;35.17;33.95
21574;BME280;10948;48.706;9.258;2023-07-08T12:36:41;97908.78;;;35.02;34.05
21574;BME280;10948;48.706;9.258;2023-07-08T12:39:08;97906.16;;;34.90;33.91
21574;BME280;10948;48.706;9.258;2023-07-08T12:41:35;97909.31;;;34.87;33.81
21574;BME280;10948;48.706;9.258;2023-07-08T12:44:01;97899.63;;;35.80;32.93
21574;BME280;10948;48.706;9.258;2023-07-08T12:46:27;97901.78;;;35.78;34.42
21574;BME280;10948;48.706;9.258;2023-07-08T12:48:52;97898.59;;;34.92;33.98
21574;BME280;10948;48.706;9.258;2023-07-08T12:51:19;97897.38;;;34.09;35.73
21574;BME280;10948;48.706;9.258;2023-07-08T12:53:48;97892.91;;;34.26;34.97
21574;BME280;10948;48.706;9.258;2023-07-08T12:56:14;97886.81;;;35.59;33.09
21574;BME280;10948;48.706;9.258;2023-07-08T12:58:40;97889.72;;;36.45;33.60
21574;BME280;10948;48.706;9.258;2023-07-08T13:01:07;97889.19;;;36.91;33.17
21574;BME280;10948;48.706;9.258;2023-07-08T13:03:34;97884.41;;;35.46;34.21
21574;BME280;10948;48.706;9.258;2023-07-08T13:06:01;97880.91;;;35.62;33.12
21574;BME280;10948;48.706;9.258;2023-07-08T13:08:30;97884.47;;;35.18;33.38
21574;BME280;10948;48.706;9.258;2023-07-08T13:10:57;97883.09;;;35.32;33.38
21574;BME280;10948;48.706;9.258;2023-07-08T13:13:24;97880.97;;;35.34;33.29
21574;BME280;10948;48.706;9.258;2023-07-08T13:15:50;97883.59;;;35.29;32.77
21574;BME280;10948;48.706;9.258;2023-07-08T13:18:20;97882.31;;;35.32;33.85
21574;BME280;10948;48.706;9.258;2023-07-08T13:20:48;97878.53;;;35.66;32.48
21574;BME280;10948;48.706;9.258;2023-07-08T13:23:15;97876.94;;;34.92;33.89
21574;BME280;10948;48.706;9.258;2023-07-08T13:25:40;97878.03;;;35.52;33.57
21574;BME280;10948;48.706;9.258;2023-07-08T13:28:18;97866.75;;;35.44;33.00
21574;BME280;10948;48.706;9.258;2023-07-08T13:30:51;97872.03;;;34.50;34.09
21574;BME280;10948;48.706;9.258;2023-07-08T13:33:17;97876.00;;;34.59;34.44
21574;BME280;10948;48.706;9.258;2023-07-08T13:35:43;97879.31;;;35.66;33.90
21574;BME280;10948;48.706;9.258;2023-07-08T13:38:19;97879.59;;;34.76;34.29
21574;BME280;10948;48.706;9.258;2023-07-08T13:40:46;97880.19;;;34.66;34.53
21574;BME280;10948;48.706;9.258;2023-07-08T13:43:12;97871.00;;;34.67;35.09
21574;BME280;10948;48.706;9.258;2023-07-08T13:45:37;97875.38;;;34.29;34.62
21574;BME280;10948;48.706;9.258;2023-07-08T13:48:13;97877.84;;;34.19;35.54
21574;BME280;10948;48.706;9.258;2023-07-08T13:50:45;97868.56;;;34.26;35.04
21574;BME280;10948;48.706;9.258;2023-07-08T13:53:19;97883.34;;;33.43;35.31